createdAt,value
2023-03-01T00:06:15.464Z,27.50
2023-03-01T00:13:06.340Z,27.10
2023-03-01T00:16:12.570Z,28.50
2023-03-01T00:23:02.815Z,29.30
2023-03-01T00:26:13.574Z,28.50
2023-03-01T00:37:23.001Z,29.70
2023-03-01T00:44:13.069Z,29.20
2023-03-01T00:54:43.836Z,30.60
2023-03-01T01:01:34.045Z,31.60
2023-03-01T01:04:40.606Z,30.40
2023-03-01T01:11:30.583Z,32.20
2023-03-01T01:22:21.560Z,30.70
2023-03-01T01:37:32.619Z,32.60
2023-03-01T01:44:25.591Z,33.10
2023-03-01T01:55:28.484Z,29.90
2023-03-01T02:02:17.777Z,31.70
2023-03-01T02:13:36.448Z,27.50
2023-03-01T02:29:38.801Z,28.10
2023-03-01T02:40:54.613Z,25.30
2023-03-01T02:47:46.593Z,26.70
2023-03-01T02:59:09.610Z,24.90
2023-03-01T03:06:02.234Z,26.30
2023-03-01T03:16:54.192Z,27.20
2023-03-01T03:19:25.410Z,26.50
2023-03-01T03:21:56.657Z,24.60
2023-03-01T03:24:28.548Z,26.40
2023-03-01T03:26:59.654Z,28.10
2023-03-01T03:29:27.755Z,26.30
2023-03-01T03:31:59.124Z,27.80
2023-03-01T03:34:29.817Z,27.50
2023-03-01T03:37:01.003Z,27.30
2023-03-01T03:39:35.951Z,25.70
2023-03-01T03:42:06.995Z,24.50
2023-03-01T03:44:38.673Z,24.90
2023-03-01T03:47:09.773Z,25.50
2023-03-01T03:49:40.967Z,25.20
2023-03-01T03:52:14.525Z,26.10
2023-03-01T03:54:45.545Z,30.50
2023-03-01T03:57:16.605Z,27.90
2023-03-01T03:59:44.697Z,28.50
2023-03-01T04:02:23.208Z,27.70
2023-03-01T04:04:54.314Z,25.70
2023-03-01T04:07:25.341Z,27.50
2023-03-01T04:09:56.895Z,27.00
2023-03-01T04:12:27.945Z,26.10
2023-03-01T04:14:59.117Z,26.00
2023-03-01T04:17:30.192Z,25.60
2023-03-01T04:20:06.664Z,31.80
2023-03-01T04:22:39.996Z,27.10
2023-03-01T04:25:15.162Z,26.00
2023-03-01T04:27:46.036Z,27.90
2023-03-01T04:30:17.159Z,27.50
2023-03-01T04:32:48.128Z,27.00
2023-03-01T04:35:19.366Z,29.00
2023-03-01T04:37:50.580Z,28.20
2023-03-01T04:40:22.364Z,27.40
2023-03-01T04:42:53.503Z,25.90
2023-03-01T04:45:24.759Z,27.50
2023-03-01T04:47:55.495Z,28.50
2023-03-01T04:50:26.877Z,28.60
2023-03-01T04:53:00.659Z,28.10
2023-03-01T04:55:32.736Z,29.50
2023-03-01T04:58:03.935Z,30.30
2023-03-01T05:00:32.136Z,27.50
2023-03-01T05:03:03.379Z,29.20
2023-03-01T05:05:36.215Z,28.20
2023-03-01T05:08:08.609Z,26.70
2023-03-01T05:10:39.966Z,28.00
2023-03-01T05:13:09.395Z,27.10
2023-03-01T05:15:39.027Z,28.90
2023-03-01T05:18:12.451Z,27.30
2023-03-01T05:20:42.951Z,28.40
2023-03-01T05:23:11.588Z,29.50
2023-03-01T05:28:13.380Z,29.90
2023-03-01T05:31:10.836Z,27.50
2023-03-01T05:33:40.818Z,26.70
2023-03-01T05:36:11.107Z,28.10
2023-03-01T05:38:58.179Z,28.60
2023-03-01T05:41:29.846Z,27.60
2023-03-01T05:43:58.186Z,28.00
2023-03-01T05:46:26.306Z,28.60
2023-03-01T05:48:59.564Z,26.50
2023-03-01T05:51:31.077Z,28.60
2023-03-01T05:54:01.067Z,28.40
2023-03-01T05:56:34.033Z,26.80
2023-03-01T05:59:08.887Z,28.60
2023-03-01T06:01:37.846Z,30.60
2023-03-01T06:04:06.627Z,27.70
2023-03-01T06:06:57.318Z,29.50
2023-03-01T06:09:29.872Z,29.50
2023-03-01T06:11:59.412Z,32.50
2023-03-01T06:14:27.682Z,28.50
2023-03-01T06:16:57.139Z,32.10
2023-03-01T06:19:26.518Z,30.40
2023-03-01T06:21:57.683Z,31.70
2023-03-01T06:24:29.905Z,28.90
2023-03-01T06:27:01.807Z,29.80
2023-03-01T06:29:33.298Z,28.10
2023-03-01T06:32:01.914Z,29.80
2023-03-01T06:37:22.138Z,33.20
2023-03-01T06:40:14.371Z,33.10
2023-03-01T06:42:55.111Z,31.80
2023-03-01T06:45:25.578Z,35.20
2023-03-01T06:48:04.664Z,32.40
2023-03-01T06:50:35.895Z,33.10
2023-03-01T06:53:06.844Z,34.80
2023-03-01T06:55:38.130Z,34.60
2023-03-01T06:58:10.031Z,33.40
2023-03-01T07:00:41.975Z,33.80
2023-03-01T07:03:12.860Z,32.70
2023-03-01T07:05:44.085Z,34.50
2023-03-01T07:08:15.366Z,34.40
2023-03-01T07:10:46.219Z,33.90
2023-03-01T07:13:17.360Z,31.40
2023-03-01T07:15:49.085Z,31.90
2023-03-01T07:18:20.081Z,31.00
2023-03-01T07:20:51.150Z,32.00
2023-03-01T07:23:22.214Z,29.90
2023-03-01T07:25:56.127Z,24.30
2023-03-01T07:28:27.406Z,31.60
2023-03-01T07:31:13.910Z,31.60
2023-03-01T07:33:45.704Z,34.00
2023-03-01T07:36:16.682Z,30.70
2023-03-01T07:38:55.225Z,33.30
2023-03-01T07:41:26.359Z,30.60
2023-03-01T07:43:57.609Z,33.90
2023-03-01T07:46:39.079Z,34.70
2023-03-01T07:49:24.480Z,31.20
2023-03-01T07:52:05.237Z,30.20
2023-03-01T07:54:36.218Z,33.10
2023-03-01T07:57:09.802Z,33.40
2023-03-01T07:59:41.121Z,31.40
2023-03-01T08:02:18.651Z,34.40
2023-03-01T08:04:47.990Z,29.10
2023-03-01T08:07:23.270Z,32.10
2023-03-01T08:09:54.145Z,32.50
2023-03-01T08:12:29.230Z,31.50
2023-03-01T08:15:01.501Z,27.60
2023-03-01T08:17:32.879Z,32.40
2023-03-01T08:20:07.339Z,28.00
2023-03-01T08:22:38.200Z,25.30
2023-03-01T08:25:11.036Z,25.20
2023-03-01T08:27:42.192Z,24.30
2023-03-01T08:30:13.881Z,22.40
2023-03-01T08:32:44.962Z,23.90
2023-03-01T08:35:16.186Z,21.40
2023-03-01T08:37:48.661Z,26.20
2023-03-01T08:40:33.377Z,25.80
2023-03-01T08:43:27.764Z,25.90
2023-03-01T08:45:59.036Z,28.50
2023-03-01T08:48:50.161Z,24.80
2023-03-01T08:51:24.971Z,22.80
2023-03-01T08:54:20.727Z,22.40
2023-03-01T08:57:28.476Z,22.20
2023-03-01T09:00:46.524Z,26.00
2023-03-01T09:03:20.790Z,24.00
2023-03-01T09:19:14.612Z,32.40
2023-03-01T09:30:35.540Z,29.90
2023-03-01T09:33:50.624Z,30.00
2023-03-01T09:40:51.374Z,27.50
2023-03-01T09:50:20.015Z,28.60
2023-03-01T10:08:46.993Z,29.50
2023-03-01T10:25:31.939Z,33.00
2023-03-01T11:20:14.603Z,28.80
2023-03-01T11:23:51.823Z,28.90
2023-03-01T11:26:49.237Z,28.60
2023-03-01T11:33:50.500Z,27.40
2023-03-01T11:36:36.867Z,32.90
2023-03-01T11:47:00.567Z,29.10
2023-03-01T11:54:14.631Z,30.30
2023-03-01T11:57:49.043Z,26.20
2023-03-01T12:01:05.931Z,24.20
2023-03-01T12:17:44.839Z,27.00
2023-03-01T12:21:13.607Z,29.00
2023-03-01T12:32:39.293Z,30.40
2023-03-01T12:35:42.372Z,32.70
2023-03-01T12:38:19.742Z,29.50
2023-03-01T12:41:32.403Z,34.50
2023-03-01T12:44:43.809Z,27.80
2023-03-01T12:47:59.867Z,30.90
2023-03-01T12:51:01.158Z,25.50
2023-03-01T12:53:59.924Z,28.30
2023-03-01T12:56:37.120Z,27.60
2023-03-01T12:59:23.435Z,28.00
2023-03-01T13:02:29.762Z,28.90
2023-03-01T13:05:39.751Z,30.80
2023-03-01T13:08:50.611Z,29.60
2023-03-01T13:12:13.023Z,28.80
2023-03-01T13:15:12.747Z,28.30
2023-03-01T13:17:54.592Z,23.80
2023-03-01T13:21:00.340Z,30.40
2023-03-01T13:24:40.163Z,30.60
2023-03-01T13:29:50.923Z,32.30
2023-03-01T13:50:21.769Z,26.80
2023-03-01T13:53:30.487Z,29.50
2023-03-01T13:56:38.639Z,29.10
2023-03-01T14:02:15.177Z,30.90
2023-03-01T14:05:04.984Z,31.40
2023-03-01T14:07:57.634Z,29.10
2023-03-01T14:11:26.139Z,31.60
2023-03-01T14:14:24.437Z,29.80
2023-03-01T14:18:34.687Z,29.60
2023-03-01T14:21:41.796Z,29.10
2023-03-01T14:25:32.259Z,28.90
2023-03-01T14:28:59.170Z,31.40
2023-03-01T14:31:55.160Z,31.10
2023-03-01T14:34:30.126Z,29.50
2023-03-01T14:37:51.144Z,30.50
2023-03-01T14:40:37.276Z,30.50
2023-03-01T14:43:28.224Z,28.60
2023-03-01T14:46:44.377Z,30.40
2023-03-01T15:03:51.921Z,24.90
2023-03-01T15:06:26.319Z,27.00
2023-03-01T15:09:20.225Z,28.50
2023-03-01T15:29:02.115Z,26.20
2023-03-01T15:36:43.729Z,26.60
2023-03-01T15:53:58.109Z,27.10
2023-03-01T15:57:28.507Z,26.90
2023-03-01T16:00:29.876Z,29.40
2023-03-01T16:03:22.560Z,25.80
2023-03-01T16:05:58.481Z,29.30
2023-03-01T16:09:12.397Z,29.80
2023-03-01T16:12:02.210Z,30.60
2023-03-01T16:14:32.190Z,29.10
2023-03-01T16:17:02.418Z,29.00
2023-03-01T16:19:32.333Z,33.30
2023-03-01T16:22:05.424Z,35.00
2023-03-01T16:24:36.500Z,37.30
2023-03-01T16:27:05.125Z,37.40
2023-03-01T16:29:39.770Z,37.60
2023-03-01T16:33:01.181Z,37.40
2023-03-01T16:35:32.310Z,33.30
2023-03-01T16:38:04.429Z,34.50
2023-03-01T16:40:35.675Z,31.10
2023-03-01T16:43:09.327Z,36.00
2023-03-01T16:45:41.222Z,36.00
2023-03-01T16:48:12.031Z,35.60
2023-03-01T16:50:44.315Z,38.80
2023-03-01T16:53:12.679Z,37.60
2023-03-01T16:55:49.318Z,43.80
2023-03-01T16:58:18.898Z,37.00
2023-03-01T17:00:47.520Z,35.90
2023-03-01T17:03:17.708Z,38.20
2023-03-01T17:05:48.692Z,42.60
2023-03-01T17:08:18.777Z,39.90
2023-03-01T17:10:48.568Z,39.50
2023-03-01T17:13:19.283Z,37.70
2023-03-01T17:15:48.879Z,40.50
2023-03-01T17:18:40.434Z,37.40
2023-03-01T17:21:11.030Z,35.50
2023-03-01T17:23:41.362Z,35.50
2023-03-01T17:26:11.249Z,36.10
2023-03-01T17:28:43.201Z,37.20
2023-03-01T17:31:12.905Z,36.70
2023-03-01T17:33:42.822Z,34.80
2023-03-01T17:36:12.714Z,37.90
2023-03-01T17:38:42.204Z,36.50
2023-03-01T17:41:12.169Z,35.30
2023-03-01T17:44:02.934Z,29.70
2023-03-01T17:46:32.661Z,32.60
2023-03-01T17:49:02.254Z,32.10
2023-03-01T17:51:32.245Z,32.30
2023-03-01T17:54:01.238Z,36.80
2023-03-01T17:56:34.089Z,35.60
2023-03-01T17:59:08.745Z,33.30
2023-03-01T18:01:43.595Z,33.60
2023-03-01T18:04:13.719Z,35.30
2023-03-01T18:06:43.834Z,33.30
2023-03-01T18:09:12.067Z,38.20
2023-03-01T18:11:44.733Z,36.40
2023-03-01T18:14:15.995Z,39.20
2023-03-01T18:16:49.711Z,37.50
2023-03-01T18:19:18.424Z,40.30
2023-03-01T18:21:50.128Z,47.10
2023-03-01T18:24:20.219Z,41.50
2023-03-01T18:26:48.787Z,44.50
2023-03-01T18:29:22.391Z,43.40
2023-03-01T18:31:52.256Z,45.50
2023-03-01T18:34:25.878Z,46.40
2023-03-01T18:37:08.379Z,44.90
2023-03-01T18:39:38.737Z,46.20
2023-03-01T18:42:07.891Z,43.50
2023-03-01T18:44:38.068Z,46.00
2023-03-01T18:47:06.113Z,45.20
2023-03-01T18:49:35.940Z,50.50
2023-03-01T18:52:05.912Z,47.20
2023-03-01T18:54:35.840Z,47.50
2023-03-01T18:57:11.322Z,48.90
2023-03-01T18:59:38.726Z,47.90
2023-03-01T19:02:37.445Z,49.30
2023-03-01T19:05:11.041Z,44.10
2023-03-01T19:07:40.775Z,50.70
2023-03-01T19:10:14.721Z,44.10
2023-03-01T19:12:46.974Z,45.50
2023-03-01T19:15:17.236Z,48.90
2023-03-01T19:17:45.592Z,45.40
2023-03-01T19:27:43.301Z,44.80
2023-03-01T19:53:56.023Z,41.30
2023-03-01T19:56:23.082Z,40.50
2023-03-01T19:59:16.935Z,41.10
2023-03-01T20:01:47.048Z,37.80
2023-03-01T20:04:18.312Z,36.70
2023-03-01T20:06:52.523Z,38.50
2023-03-01T20:09:23.866Z,39.70
2023-03-01T20:11:53.735Z,38.10
2023-03-01T20:14:24.355Z,38.40
2023-03-01T20:16:55.759Z,44.80
2023-03-01T20:19:26.863Z,39.00
2023-03-01T20:22:03.073Z,39.90
2023-03-01T20:24:31.556Z,40.00
2023-03-01T20:27:07.212Z,41.20
2023-03-01T20:29:40.612Z,41.70
2023-03-01T20:32:10.639Z,41.00
2023-03-01T20:34:40.659Z,39.10
2023-03-01T20:37:34.456Z,39.20
2023-03-01T20:40:11.769Z,39.40
2023-03-01T20:43:04.419Z,38.30
2023-03-01T20:45:39.664Z,41.20
2023-03-01T20:48:10.731Z,42.10
2023-03-01T20:50:42.677Z,42.70
2023-03-01T20:53:16.085Z,42.20
2023-03-01T20:56:27.086Z,41.80
2023-03-01T20:59:16.026Z,41.80
2023-03-01T21:01:47.328Z,40.00
2023-03-01T21:04:18.716Z,39.70
2023-03-01T21:06:51.397Z,43.20
2023-03-01T21:09:22.550Z,41.50
2023-03-01T21:11:53.530Z,39.70
2023-03-01T21:14:25.159Z,42.10
2023-03-01T21:16:57.399Z,41.30
2023-03-01T21:20:07.308Z,45.10
2023-03-01T21:22:39.492Z,42.20
2023-03-01T21:25:12.075Z,38.60
2023-03-01T21:27:43.622Z,38.90
2023-03-01T21:30:15.769Z,40.00
2023-03-01T21:32:47.063Z,38.60
2023-03-01T21:35:40.789Z,42.80
2023-03-01T21:38:35.915Z,39.70
2023-03-01T21:41:40.142Z,39.20
2023-03-01T21:44:11.575Z,40.50
2023-03-01T21:46:42.544Z,39.80
2023-03-01T21:49:13.625Z,42.20
2023-03-01T21:51:44.783Z,39.90
2023-03-01T21:54:18.410Z,39.20
2023-03-01T21:56:51.121Z,42.80
2023-03-01T21:59:24.395Z,40.20
2023-03-01T22:01:55.349Z,42.30
2023-03-01T22:04:25.958Z,41.00
2023-03-01T22:06:56.789Z,41.60
2023-03-01T22:09:27.972Z,42.70
2023-03-01T22:12:02.814Z,43.80
2023-03-01T22:14:33.985Z,46.50
2023-03-01T22:17:06.824Z,43.30
2023-03-01T22:19:59.088Z,44.20
2023-03-01T22:22:30.675Z,40.20
2023-03-01T22:25:03.021Z,43.90
2023-03-01T22:27:34.232Z,41.50
2023-03-01T22:30:08.469Z,41.80
2023-03-01T22:32:40.037Z,39.20
2023-03-01T22:35:12.356Z,37.40
2023-03-01T22:37:43.548Z,41.40
2023-03-01T22:40:19.261Z,42.70
2023-03-01T22:43:06.016Z,38.50
2023-03-01T22:45:37.353Z,38.00
2023-03-01T22:48:08.627Z,38.40
2023-03-01T22:50:46.462Z,38.10
2023-03-01T22:53:18.220Z,38.70
2023-03-01T22:55:49.222Z,37.20
2023-03-01T22:58:20.173Z,41.20
2023-03-01T23:00:51.110Z,38.90
2023-03-01T23:03:22.255Z,38.30
2023-03-01T23:05:53.130Z,37.80
2023-03-01T23:08:23.980Z,42.80
2023-03-01T23:10:54.785Z,42.30
2023-03-01T23:13:25.956Z,39.20
2023-03-01T23:15:58.228Z,37.50
2023-03-01T23:18:29.093Z,41.30
2023-03-01T23:21:00.200Z,40.00
2023-03-01T23:23:30.917Z,39.30
2023-03-01T23:26:02.381Z,41.30
2023-03-01T23:28:34.537Z,39.60
2023-03-01T23:31:08.212Z,37.20
2023-03-01T23:33:40.336Z,41.00
2023-03-01T23:44:42.381Z,39.10
2023-03-01T23:47:13.210Z,36.50
2023-03-01T23:49:43.976Z,40.50
2023-03-01T23:52:17.451Z,36.70
2023-03-01T23:54:48.229Z,37.40
2023-03-01T23:57:16.394Z,39.20
2023-03-01T23:59:44.645Z,38.20
